EXS93G EGCC-LEAL
Flight info
| Callsign | EXS93G |
|---|---|
| Flight time | 2h 28m |
| Altitude | 37000 |
| Route | KUXEM P17 BEPHE DCT OSSEP DCT ELNIF DCT ZESPE DCT KLAKI DCT MANIG DCT BADUR DCT KORER UN26 UVUDO UN862 UTISO DCT OSMOB DCT TBO DCT PERDU DCT POSSY DCT XIMPE DCT RIMES DCT SAURA DCT TATOS N860 PLANA DCT VLC |
| Aircraft | B738/M-SDE2E3FGHIRWXY/LB1 |
Departure
| Time | 2026-05-04 18:15 |
|---|---|
| Airport | Manchester Airport (EGCC) |
Arrival
| Time | 2026-05-04 20:44 |
|---|---|
| Airport | Alicante-Elche Miguel Hernández Airport (LEAL) |
| Time | Latitude | Longitude | Altitude | Speed | Heading |
|---|---|---|---|---|---|
| 2026-05-04 17:24 | 53.36763 | -2.28397 | 254 ft | 0 kts | 135° |
| 2026-05-04 17:57 | 53.36766 | -2.28402 | 254 ft | 3 kts | 135° |
| 2026-05-04 17:57 | 53.36784 | -2.28433 | 254 ft | 3 kts | 135° |
| 2026-05-04 17:58 | 53.36798 | -2.28453 | 254 ft | 4 kts | 195° |
| 2026-05-04 17:58 | 53.36815 | -2.28428 | 254 ft | 4 kts | 227° |
| 2026-05-04 17:58 | 53.36812 | -2.28433 | 254 ft | 4 kts | 224° |
| 2026-05-04 17:58 | 53.36792 | -2.28465 | 254 ft | 4 kts | 224° |
| 2026-05-04 17:59 | 53.36788 | -2.28472 | 254 ft | 0 kts | 224° |
| 2026-05-04 18:05 | 53.36787 | -2.28473 | 254 ft | 1 kts | 224° |
| 2026-05-04 18:05 | 53.36786 | -2.28475 | 254 ft | 0 kts | 224° |
| 2026-05-04 18:05 | 53.36780 | -2.28485 | 254 ft | 3 kts | 224° |
| 2026-05-04 18:05 | 53.36759 | -2.28520 | 254 ft | 6 kts | 224° |
| 2026-05-04 18:06 | 53.36691 | -2.28632 | 254 ft | 7 kts | 225° |
| 2026-05-04 18:06 | 53.36658 | -2.28688 | 254 ft | 7 kts | 228° |
| 2026-05-04 18:06 | 53.36638 | -2.28759 | 254 ft | 7 kts | 243° |
| 2026-05-04 18:07 | 53.36599 | -2.28782 | 254 ft | 7 kts | 158° |
| 2026-05-04 18:07 | 53.36554 | -2.28716 | 254 ft | 10 kts | 135° |
| 2026-05-04 18:07 | 53.36497 | -2.28619 | 254 ft | 13 kts | 135° |
| 2026-05-04 18:07 | 53.36432 | -2.28504 | 254 ft | 14 kts | 129° |
| 2026-05-04 18:08 | 53.36390 | -2.28367 | 254 ft | 13 kts | 123° |
| 2026-05-04 18:08 | 53.36329 | -2.28259 | 254 ft | 13 kts | 134° |
| 2026-05-04 18:08 | 53.36268 | -2.28156 | 254 ft | 12 kts | 135° |
| 2026-05-04 18:08 | 53.36208 | -2.28056 | 254 ft | 12 kts | 135° |
| 2026-05-04 18:09 | 53.36085 | -2.27881 | 254 ft | 11 kts | 142° |
| 2026-05-04 18:09 | 53.35964 | -2.27738 | 254 ft | 10 kts | 160° |
| 2026-05-04 18:10 | 53.35894 | -2.27728 | 254 ft | 10 kts | 181° |
| 2026-05-04 18:10 | 53.35820 | -2.27729 | 251 ft | 12 kts | 165° |
| 2026-05-04 18:10 | 53.35749 | -2.27653 | 249 ft | 13 kts | 159° |
| 2026-05-04 18:10 | 53.35679 | -2.27601 | 246 ft | 8 kts | 147° |
| 2026-05-04 18:11 | 53.35635 | -2.27543 | 245 ft | 8 kts | 141° |
| 2026-05-04 18:11 | 53.35590 | -2.27483 | 244 ft | 9 kts | 142° |
| 2026-05-04 18:11 | 53.35578 | -2.27465 | 244 ft | 0 kts | 141° |
| 2026-05-04 18:12 | 53.35577 | -2.27465 | 244 ft | 0 kts | 141° |
| 2026-05-04 18:12 | 53.35563 | -2.27446 | 244 ft | 5 kts | 142° |
| 2026-05-04 18:13 | 53.35524 | -2.27393 | 247 ft | 9 kts | 141° |
| 2026-05-04 18:13 | 53.35458 | -2.27305 | 247 ft | 15 kts | 141° |
| 2026-05-04 18:13 | 53.35285 | -2.27205 | 239 ft | 16 kts | 191° |
| 2026-05-04 18:14 | 53.35184 | -2.27240 | 231 ft | 17 kts | 192° |
| 2026-05-04 18:14 | 53.35089 | -2.27271 | 228 ft | 8 kts | 191° |
| 2026-05-04 18:14 | 53.35025 | -2.27297 | 226 ft | 10 kts | 206° |
| 2026-05-04 18:15 | 53.34754 | -2.27849 | 222 ft | 89 kts | 231° |
| 2026-05-04 18:15 | 53.33471 | -2.30502 | 583 ft | 180 kts | 232° |
| 2026-05-04 18:15 | 53.32677 | -2.32163 | 1458 ft | 189 kts | 234° |
| 2026-05-04 18:16 | 53.32008 | -2.34081 | 2280 ft | 193 kts | 261° |
| 2026-05-04 18:16 | 53.31898 | -2.36306 | 3090 ft | 193 kts | 276° |
| 2026-05-04 18:16 | 53.32159 | -2.38526 | 3824 ft | 197 kts | 284° |
| 2026-05-04 18:17 | 53.32531 | -2.43511 | 4298 ft | 234 kts | 261° |
| 2026-05-04 18:17 | 53.32130 | -2.46199 | 4738 ft | 246 kts | 255° |
| 2026-05-04 18:17 | 53.31044 | -2.51952 | 4992 ft | 265 kts | 253° |
| 2026-05-04 18:18 | 53.30492 | -2.54890 | 4995 ft | 265 kts | 253° |
| 2026-05-04 18:18 | 53.30130 | -2.56835 | 5000 ft | 263 kts | 254° |
| 2026-05-04 18:18 | 53.29548 | -2.59715 | 4998 ft | 261 kts | 248° |
| 2026-05-04 18:18 | 53.28788 | -2.62468 | 5003 ft | 260 kts | 245° |
| 2026-05-04 18:19 | 53.25863 | -2.67416 | 5014 ft | 268 kts | 216° |
| 2026-05-04 18:19 | 53.24825 | -2.68602 | 5017 ft | 268 kts | 216° |
| 2026-05-04 18:19 | 53.23291 | -2.70358 | 5002 ft | 267 kts | 216° |
| 2026-05-04 18:20 | 53.21763 | -2.72111 | 5019 ft | 266 kts | 216° |
| 2026-05-04 18:20 | 53.20223 | -2.73883 | 5326 ft | 271 kts | 216° |
| 2026-05-04 18:20 | 53.18671 | -2.75670 | 6159 ft | 271 kts | 216° |
| 2026-05-04 18:20 | 53.17139 | -2.77435 | 6940 ft | 271 kts | 217° |
| 2026-05-04 18:21 | 53.15579 | -2.79235 | 7649 ft | 275 kts | 217° |
| 2026-05-04 18:21 | 53.14002 | -2.81053 | 8380 ft | 277 kts | 217° |
| 2026-05-04 18:21 | 53.12407 | -2.82889 | 9077 ft | 281 kts | 216° |
| 2026-05-04 18:21 | 53.10792 | -2.84747 | 9800 ft | 284 kts | 216° |
| 2026-05-04 18:22 | 53.09145 | -2.86629 | 10383 ft | 292 kts | 214° |
| 2026-05-04 18:22 | 53.07202 | -2.87943 | 10548 ft | 317 kts | 191° |
| 2026-05-04 18:22 | 53.04927 | -2.87856 | 10752 ft | 339 kts | 173° |
| 2026-05-04 18:22 | 53.02566 | -2.87190 | 11201 ft | 349 kts | 171° |
| 2026-05-04 18:23 | 53.00164 | -2.86446 | 11861 ft | 352 kts | 171° |
| 2026-05-04 18:23 | 52.97756 | -2.85713 | 12568 ft | 354 kts | 171° |
| 2026-05-04 18:23 | 52.95326 | -2.85005 | 13319 ft | 355 kts | 171° |
| 2026-05-04 18:23 | 52.92878 | -2.84318 | 14003 ft | 359 kts | 172° |
| 2026-05-04 18:24 | 52.90407 | -2.83644 | 14675 ft | 361 kts | 172° |
| 2026-05-04 18:24 | 52.87917 | -2.82973 | 15355 ft | 364 kts | 172° |
| 2026-05-04 18:24 | 52.85417 | -2.82302 | 16070 ft | 365 kts | 172° |
| 2026-05-04 18:24 | 52.82892 | -2.81628 | 16684 ft | 370 kts | 172° |
| 2026-05-04 18:25 | 52.80341 | -2.80946 | 17378 ft | 372 kts | 172° |
| 2026-05-04 18:25 | 52.77771 | -2.80250 | 17977 ft | 377 kts | 171° |
| 2026-05-04 18:25 | 52.75175 | -2.79534 | 18597 ft | 379 kts | 171° |
| 2026-05-04 18:25 | 52.72575 | -2.78817 | 19219 ft | 381 kts | 171° |
| 2026-05-04 18:26 | 52.69941 | -2.78096 | 19726 ft | 385 kts | 171° |
| 2026-05-04 18:26 | 52.67288 | -2.77392 | 20279 ft | 388 kts | 172° |
| 2026-05-04 18:26 | 52.64613 | -2.76693 | 20826 ft | 390 kts | 171° |
| 2026-05-04 18:26 | 52.61959 | -2.76017 | 21362 ft | 393 kts | 173° |
| 2026-05-04 18:27 | 52.59216 | -2.75826 | 21860 ft | 396 kts | 183° |
| 2026-05-04 18:27 | 52.56460 | -2.76136 | 22401 ft | 398 kts | 184° |
| 2026-05-04 18:27 | 52.53687 | -2.76440 | 22904 ft | 401 kts | 184° |
| 2026-05-04 18:27 | 52.50888 | -2.76707 | 23411 ft | 405 kts | 183° |
| 2026-05-04 18:28 | 52.48067 | -2.76957 | 23922 ft | 404 kts | 184° |
| 2026-05-04 18:28 | 52.45280 | -2.77196 | 24581 ft | 401 kts | 184° |
| 2026-05-04 18:28 | 52.42477 | -2.77435 | 24908 ft | 406 kts | 184° |
| 2026-05-04 18:28 | 52.39639 | -2.77677 | 25208 ft | 411 kts | 184° |
| 2026-05-04 18:29 | 52.36769 | -2.77923 | 25568 ft | 414 kts | 184° |
| 2026-05-04 18:29 | 52.33885 | -2.78171 | 25959 ft | 416 kts | 184° |
| 2026-05-04 18:29 | 52.30982 | -2.78420 | 26322 ft | 419 kts | 183° |
| 2026-05-04 18:29 | 52.28057 | -2.78672 | 26667 ft | 423 kts | 183° |
| 2026-05-04 18:30 | 52.22148 | -2.79178 | 27455 ft | 426 kts | 183° |
| 2026-05-04 18:30 | 52.19180 | -2.79432 | 27822 ft | 428 kts | 183° |
| 2026-05-04 18:30 | 52.16197 | -2.79688 | 28100 ft | 432 kts | 183° |
| 2026-05-04 18:31 | 52.13184 | -2.79945 | 28385 ft | 435 kts | 183° |
| 2026-05-04 18:31 | 52.10145 | -2.80204 | 28690 ft | 438 kts | 183° |
| 2026-05-04 18:31 | 52.07094 | -2.80464 | 29020 ft | 441 kts | 183° |
| 2026-05-04 18:31 | 52.04026 | -2.80725 | 29347 ft | 442 kts | 183° |
| 2026-05-04 18:32 | 52.00939 | -2.80988 | 29641 ft | 445 kts | 183° |
| 2026-05-04 18:32 | 51.97848 | -2.81251 | 30050 ft | 444 kts | 183° |
| 2026-05-04 18:32 | 51.94774 | -2.81513 | 30550 ft | 440 kts | 182° |
| 2026-05-04 18:32 | 51.91724 | -2.81772 | 30888 ft | 440 kts | 182° |
| 2026-05-04 18:33 | 51.88659 | -2.82032 | 31126 ft | 442 kts | 182° |
| 2026-05-04 18:33 | 51.85578 | -2.82300 | 31375 ft | 444 kts | 184° |
| 2026-05-04 18:33 | 51.82516 | -2.82814 | 31836 ft | 440 kts | 186° |
| 2026-05-04 18:33 | 51.79490 | -2.83463 | 32225 ft | 439 kts | 187° |
| 2026-05-04 18:34 | 51.76461 | -2.84149 | 32496 ft | 439 kts | 187° |
| 2026-05-04 18:34 | 51.73458 | -2.84827 | 33056 ft | 433 kts | 187° |
| 2026-05-04 18:34 | 51.70476 | -2.85485 | 33416 ft | 432 kts | 187° |
| 2026-05-04 18:34 | 51.67483 | -2.86129 | 33592 ft | 435 kts | 187° |
| 2026-05-04 18:35 | 51.64509 | -2.86759 | 33772 ft | 438 kts | 186° |
| 2026-05-04 18:35 | 51.61499 | -2.87394 | 34126 ft | 435 kts | 186° |
| 2026-05-04 18:35 | 51.58504 | -2.88025 | 34428 ft | 434 kts | 186° |
| 2026-05-04 18:35 | 51.55508 | -2.88655 | 34596 ft | 436 kts | 186° |
| 2026-05-04 18:36 | 51.52488 | -2.89293 | 34703 ft | 439 kts | 186° |
| 2026-05-04 18:36 | 51.49453 | -2.89936 | 34886 ft | 440 kts | 186° |
| 2026-05-04 18:36 | 51.46423 | -2.90578 | 35161 ft | 439 kts | 187° |
| 2026-05-04 18:36 | 51.43395 | -2.91221 | 35404 ft | 438 kts | 187° |
| 2026-05-04 18:37 | 51.40373 | -2.91860 | 35586 ft | 439 kts | 187° |
| 2026-05-04 18:37 | 51.37336 | -2.92502 | 35771 ft | 440 kts | 187° |
| 2026-05-04 18:37 | 51.34298 | -2.93143 | 35984 ft | 440 kts | 187° |
| 2026-05-04 18:37 | 51.31268 | -2.93781 | 36200 ft | 440 kts | 187° |
| 2026-05-04 18:38 | 51.28234 | -2.94419 | 36422 ft | 439 kts | 187° |
| 2026-05-04 18:38 | 51.25205 | -2.95056 | 36647 ft | 439 kts | 187° |
| 2026-05-04 18:38 | 51.22179 | -2.95690 | 36815 ft | 440 kts | 187° |
| 2026-05-04 18:38 | 51.19141 | -2.96326 | 36940 ft | 439 kts | 187° |
| 2026-05-04 18:39 | 51.16128 | -2.96957 | 36985 ft | 435 kts | 187° |
| 2026-05-04 18:39 | 51.10140 | -2.98207 | 37012 ft | 436 kts | 187° |
| 2026-05-04 18:40 | 51.04086 | -2.99467 | 37020 ft | 442 kts | 187° |
| 2026-05-04 18:40 | 50.97967 | -3.00738 | 37014 ft | 446 kts | 187° |
| 2026-05-04 18:41 | 50.91807 | -3.02014 | 37004 ft | 446 kts | 187° |
| 2026-05-04 18:41 | 50.85690 | -3.03278 | 36989 ft | 439 kts | 187° |
| 2026-05-04 18:42 | 50.79662 | -3.04520 | 37000 ft | 436 kts | 186° |
| 2026-05-04 18:42 | 50.73665 | -3.05752 | 37000 ft | 434 kts | 187° |
| 2026-05-04 18:43 | 50.67679 | -3.06979 | 36996 ft | 434 kts | 187° |
| 2026-05-04 18:43 | 50.61685 | -3.08204 | 37011 ft | 441 kts | 187° |
| 2026-05-04 18:44 | 50.55572 | -3.09451 | 37009 ft | 445 kts | 187° |
| 2026-05-04 18:44 | 50.49406 | -3.10705 | 37006 ft | 449 kts | 187° |
| 2026-05-04 18:45 | 50.43232 | -3.11959 | 36983 ft | 444 kts | 187° |
| 2026-05-04 18:45 | 50.37168 | -3.13186 | 36999 ft | 438 kts | 187° |
| 2026-05-04 18:46 | 50.31142 | -3.14474 | 36993 ft | 437 kts | 187° |
| 2026-05-04 18:46 | 50.25124 | -3.15807 | 36995 ft | 436 kts | 187° |
| 2026-05-04 18:47 | 50.19109 | -3.17129 | 36997 ft | 436 kts | 187° |
| 2026-05-04 18:47 | 50.13092 | -3.18439 | 37003 ft | 437 kts | 187° |
| 2026-05-04 18:48 | 50.07072 | -3.19745 | 37010 ft | 438 kts | 187° |
| 2026-05-04 18:48 | 50.01029 | -3.21052 | 37004 ft | 439 kts | 187° |
| 2026-05-04 18:49 | 49.94970 | -3.22360 | 37006 ft | 440 kts | 187° |
| 2026-05-04 18:49 | 49.88897 | -3.23668 | 37004 ft | 441 kts | 187° |
| 2026-05-04 18:50 | 49.82809 | -3.24976 | 37003 ft | 442 kts | 187° |
| 2026-05-04 18:50 | 49.76680 | -3.25447 | 37007 ft | 442 kts | 173° |
| 2026-05-04 18:51 | 49.70631 | -3.23751 | 37001 ft | 442 kts | 168° |
| 2026-05-04 18:51 | 49.64591 | -3.21890 | 36992 ft | 442 kts | 169° |
| 2026-05-04 18:52 | 49.58547 | -3.20082 | 36997 ft | 442 kts | 169° |
| 2026-05-04 18:52 | 49.52506 | -3.18318 | 37000 ft | 442 kts | 169° |
| 2026-05-04 18:53 | 49.46506 | -3.16582 | 37003 ft | 441 kts | 169° |
| 2026-05-04 18:53 | 49.40478 | -3.14842 | 36995 ft | 440 kts | 169° |
| 2026-05-04 18:54 | 49.34464 | -3.13109 | 36997 ft | 440 kts | 169° |
| 2026-05-04 18:54 | 49.28451 | -3.11380 | 36994 ft | 439 kts | 169° |
| 2026-05-04 18:55 | 49.22455 | -3.09661 | 37010 ft | 438 kts | 169° |
| 2026-05-04 18:55 | 49.13482 | -3.07095 | 36993 ft | 437 kts | 169° |
| 2026-05-04 18:56 | 49.07518 | -3.05394 | 36989 ft | 436 kts | 169° |
| 2026-05-04 18:56 | 49.01563 | -3.03701 | 36995 ft | 435 kts | 169° |
| 2026-05-04 18:57 | 48.95618 | -3.02014 | 36998 ft | 434 kts | 169° |
| 2026-05-04 18:57 | 48.89682 | -3.00334 | 36996 ft | 434 kts | 169° |
| 2026-05-04 18:58 | 48.83745 | -2.98658 | 36999 ft | 434 kts | 169° |
| 2026-05-04 18:58 | 48.77813 | -2.96987 | 36989 ft | 434 kts | 169° |
| 2026-05-04 18:59 | 48.71874 | -2.95317 | 37002 ft | 434 kts | 169° |
| 2026-05-04 18:59 | 48.66027 | -2.93037 | 37004 ft | 435 kts | 163° |
| 2026-05-04 19:00 | 48.60237 | -2.90356 | 37001 ft | 435 kts | 163° |
| 2026-05-04 19:00 | 48.54443 | -2.87695 | 36995 ft | 436 kts | 163° |
| 2026-05-04 19:01 | 48.48625 | -2.85084 | 36983 ft | 436 kts | 164° |
| 2026-05-04 19:01 | 48.42796 | -2.82499 | 36983 ft | 437 kts | 164° |
| 2026-05-04 19:02 | 48.37005 | -2.79940 | 36988 ft | 437 kts | 164° |
| 2026-05-04 19:02 | 48.31163 | -2.77365 | 36980 ft | 438 kts | 164° |
| 2026-05-04 19:03 | 48.25314 | -2.74791 | 36985 ft | 438 kts | 164° |
| 2026-05-04 19:03 | 48.19469 | -2.72225 | 36980 ft | 438 kts | 164° |
| 2026-05-04 19:04 | 48.13628 | -2.69666 | 36980 ft | 438 kts | 164° |
| 2026-05-04 19:04 | 48.07782 | -2.67112 | 36980 ft | 437 kts | 164° |
| 2026-05-04 19:05 | 48.01946 | -2.64568 | 36974 ft | 437 kts | 164° |
| 2026-05-04 19:05 | 47.96112 | -2.62031 | 36981 ft | 436 kts | 164° |
| 2026-05-04 19:06 | 47.90288 | -2.59504 | 36978 ft | 436 kts | 164° |
| 2026-05-04 19:06 | 47.84470 | -2.56985 | 36976 ft | 435 kts | 164° |
| 2026-05-04 19:07 | 47.78664 | -2.54478 | 36966 ft | 434 kts | 164° |
| 2026-05-04 19:07 | 47.72863 | -2.51977 | 36955 ft | 434 kts | 165° |
| 2026-05-04 19:08 | 47.68053 | -2.49892 | 36971 ft | 433 kts | 163° |
| 2026-05-04 19:08 | 47.62365 | -2.47005 | 36969 ft | 432 kts | 161° |
| 2026-05-04 19:09 | 47.56713 | -2.43968 | 36974 ft | 431 kts | 161° |
| 2026-05-04 19:09 | 47.51074 | -2.40970 | 36965 ft | 430 kts | 161° |
| 2026-05-04 19:10 | 47.46386 | -2.38510 | 36970 ft | 430 kts | 161° |
| 2026-05-04 19:10 | 47.39805 | -2.35078 | 36975 ft | 429 kts | 161° |
| 2026-05-04 19:11 | 47.34173 | -2.32151 | 36968 ft | 429 kts | 162° |
| 2026-05-04 19:11 | 47.28545 | -2.29232 | 36967 ft | 429 kts | 162° |
| 2026-05-04 19:12 | 47.20100 | -2.24863 | 36962 ft | 429 kts | 162° |
| 2026-05-04 19:13 | 47.14460 | -2.21952 | 36965 ft | 430 kts | 162° |
| 2026-05-04 19:13 | 47.08807 | -2.19043 | 36976 ft | 431 kts | 162° |
| 2026-05-04 19:14 | 47.03148 | -2.16135 | 36968 ft | 432 kts | 162° |
| 2026-05-04 19:14 | 46.97468 | -2.13224 | 36972 ft | 433 kts | 162° |
| 2026-05-04 19:15 | 46.91777 | -2.10313 | 36970 ft | 434 kts | 162° |
| 2026-05-04 19:15 | 46.86177 | -2.07169 | 36970 ft | 435 kts | 158° |
| 2026-05-04 19:16 | 46.80628 | -2.03624 | 36967 ft | 436 kts | 158° |
| 2026-05-04 19:16 | 46.75078 | -2.00077 | 36965 ft | 435 kts | 158° |
| 2026-05-04 19:17 | 46.69524 | -1.96580 | 36967 ft | 434 kts | 159° |
| 2026-05-04 19:17 | 46.63981 | -1.93113 | 36959 ft | 433 kts | 159° |
| 2026-05-04 19:18 | 46.58447 | -1.89660 | 36957 ft | 432 kts | 159° |
| 2026-05-04 19:18 | 46.52931 | -1.86224 | 36965 ft | 431 kts | 159° |
| 2026-05-04 19:19 | 46.47519 | -1.82501 | 36966 ft | 431 kts | 153° |
| 2026-05-04 19:19 | 46.42353 | -1.78092 | 36961 ft | 431 kts | 151° |
| 2026-05-04 19:20 | 46.37209 | -1.73660 | 36975 ft | 430 kts | 152° |
| 2026-05-04 19:20 | 46.32051 | -1.69294 | 36971 ft | 429 kts | 152° |
| 2026-05-04 19:21 | 46.26812 | -1.65203 | 36965 ft | 426 kts | 160° |
| 2026-05-04 19:21 | 46.21265 | -1.62202 | 36969 ft | 426 kts | 162° |
| 2026-05-04 19:22 | 46.15693 | -1.59287 | 36966 ft | 426 kts | 162° |
| 2026-05-04 19:22 | 46.10126 | -1.56326 | 36959 ft | 427 kts | 161° |
| 2026-05-04 19:23 | 46.04564 | -1.53333 | 36965 ft | 427 kts | 161° |
| 2026-05-04 19:23 | 45.99038 | -1.50352 | 36966 ft | 427 kts | 161° |
| 2026-05-04 19:24 | 45.93469 | -1.47350 | 36958 ft | 428 kts | 161° |
| 2026-05-04 19:24 | 45.87889 | -1.44351 | 36965 ft | 428 kts | 161° |
| 2026-05-04 19:25 | 45.82310 | -1.41359 | 36962 ft | 428 kts | 161° |
| 2026-05-04 19:25 | 45.76725 | -1.38371 | 36965 ft | 429 kts | 161° |
| 2026-05-04 19:26 | 45.71132 | -1.35385 | 36964 ft | 429 kts | 162° |
| 2026-05-04 19:26 | 45.65542 | -1.32406 | 36964 ft | 429 kts | 162° |
| 2026-05-04 19:27 | 45.59951 | -1.29434 | 36965 ft | 429 kts | 162° |
| 2026-05-04 19:27 | 45.54356 | -1.26466 | 36964 ft | 429 kts | 162° |
| 2026-05-04 19:28 | 45.48763 | -1.23505 | 36969 ft | 428 kts | 162° |
| 2026-05-04 19:28 | 45.43178 | -1.20554 | 36969 ft | 428 kts | 162° |
| 2026-05-04 19:29 | 45.37583 | -1.17605 | 36967 ft | 428 kts | 162° |
| 2026-05-04 19:29 | 45.31998 | -1.14668 | 36961 ft | 428 kts | 162° |
| 2026-05-04 19:30 | 45.26418 | -1.11738 | 36970 ft | 427 kts | 162° |
| 2026-05-04 19:30 | 45.20846 | -1.08819 | 36975 ft | 427 kts | 162° |
| 2026-05-04 19:31 | 45.15280 | -1.05910 | 36967 ft | 426 kts | 162° |
| 2026-05-04 19:31 | 45.09718 | -1.03008 | 36973 ft | 426 kts | 162° |
| 2026-05-04 19:32 | 45.04162 | -1.00117 | 36973 ft | 426 kts | 162° |
| 2026-05-04 19:32 | 44.98604 | -0.97229 | 36969 ft | 425 kts | 163° |
| 2026-05-04 19:33 | 44.93045 | -0.94348 | 36975 ft | 425 kts | 163° |
| 2026-05-04 19:33 | 44.87526 | -0.91492 | 36969 ft | 426 kts | 163° |
| 2026-05-04 19:34 | 44.81966 | -0.88622 | 36970 ft | 426 kts | 163° |
| 2026-05-04 19:34 | 44.76397 | -0.85753 | 36969 ft | 426 kts | 163° |
| 2026-05-04 19:35 | 44.70822 | -0.82886 | 36971 ft | 427 kts | 163° |
| 2026-05-04 19:35 | 44.65243 | -0.80024 | 36975 ft | 427 kts | 163° |
| 2026-05-04 19:36 | 44.59657 | -0.77163 | 36964 ft | 428 kts | 163° |
| 2026-05-04 19:36 | 44.54068 | -0.74307 | 36969 ft | 427 kts | 163° |
| 2026-05-04 19:37 | 44.48488 | -0.71462 | 36979 ft | 427 kts | 163° |
| 2026-05-04 19:37 | 44.42895 | -0.68615 | 36983 ft | 427 kts | 163° |
| 2026-05-04 19:38 | 44.37310 | -0.65778 | 36983 ft | 427 kts | 163° |
| 2026-05-04 19:38 | 44.31724 | -0.62947 | 36985 ft | 427 kts | 163° |
| 2026-05-04 19:39 | 44.26139 | -0.60123 | 36987 ft | 427 kts | 163° |
| 2026-05-04 19:39 | 44.20546 | -0.57299 | 36981 ft | 427 kts | 163° |
| 2026-05-04 19:40 | 44.14953 | -0.54482 | 36997 ft | 428 kts | 163° |
| 2026-05-04 19:40 | 44.09350 | -0.51665 | 36993 ft | 428 kts | 163° |
| 2026-05-04 19:41 | 44.03743 | -0.48852 | 36998 ft | 429 kts | 163° |
| 2026-05-04 19:41 | 43.98127 | -0.46040 | 36989 ft | 429 kts | 164° |
| 2026-05-04 19:42 | 43.92512 | -0.43233 | 36998 ft | 430 kts | 164° |
| 2026-05-04 19:42 | 43.86878 | -0.40424 | 36987 ft | 430 kts | 164° |
| 2026-05-04 19:43 | 43.81241 | -0.37618 | 36980 ft | 431 kts | 164° |
| 2026-05-04 19:43 | 43.75606 | -0.34819 | 36999 ft | 431 kts | 164° |
| 2026-05-04 19:44 | 43.69958 | -0.32019 | 36987 ft | 431 kts | 164° |
| 2026-05-04 19:44 | 43.64313 | -0.29226 | 36991 ft | 431 kts | 164° |
| 2026-05-04 19:45 | 43.58662 | -0.26436 | 37008 ft | 431 kts | 165° |
| 2026-05-04 19:45 | 43.53014 | -0.23653 | 37018 ft | 431 kts | 165° |
| 2026-05-04 19:46 | 43.47411 | -0.20897 | 37009 ft | 431 kts | 165° |
| 2026-05-04 19:46 | 43.41765 | -0.18126 | 37003 ft | 430 kts | 165° |
| 2026-05-04 19:47 | 43.36123 | -0.15363 | 37010 ft | 430 kts | 165° |
| 2026-05-04 19:47 | 43.30484 | -0.12605 | 37021 ft | 430 kts | 165° |
| 2026-05-04 19:48 | 43.24838 | -0.09851 | 37022 ft | 430 kts | 165° |
| 2026-05-04 19:48 | 43.19200 | -0.07105 | 37013 ft | 430 kts | 165° |
| 2026-05-04 19:49 | 43.13558 | -0.04363 | 37020 ft | 430 kts | 165° |
| 2026-05-04 19:49 | 43.07922 | -0.01629 | 37022 ft | 430 kts | 165° |
| 2026-05-04 19:50 | 43.02274 | 0.01104 | 36984 ft | 431 kts | 165° |
| 2026-05-04 19:50 | 42.96627 | 0.03834 | 36995 ft | 431 kts | 166° |
| 2026-05-04 19:51 | 42.90976 | 0.06559 | 36988 ft | 431 kts | 166° |
| 2026-05-04 19:51 | 42.85320 | 0.09282 | 36984 ft | 431 kts | 166° |
| 2026-05-04 19:52 | 42.79660 | 0.12003 | 36990 ft | 432 kts | 166° |
| 2026-05-04 19:52 | 42.73961 | 0.14568 | 36975 ft | 428 kts | 173° |
| 2026-05-04 19:53 | 42.68120 | 0.15265 | 36993 ft | 419 kts | 184° |
| 2026-05-04 19:53 | 42.62277 | 0.15251 | 36947 ft | 419 kts | 184° |
| 2026-05-04 19:54 | 42.56448 | 0.15261 | 36960 ft | 420 kts | 184° |
| 2026-05-04 19:54 | 42.50603 | 0.15301 | 36955 ft | 420 kts | 184° |
| 2026-05-04 19:55 | 42.44758 | 0.15352 | 36944 ft | 421 kts | 184° |
| 2026-05-04 19:55 | 42.38937 | 0.15406 | 36938 ft | 421 kts | 184° |
| 2026-05-04 19:56 | 42.33082 | 0.15459 | 36945 ft | 421 kts | 184° |
| 2026-05-04 19:56 | 42.27223 | 0.15511 | 36945 ft | 421 kts | 184° |
| 2026-05-04 19:57 | 42.22306 | 0.15555 | 36947 ft | 422 kts | 184° |
| 2026-05-04 19:57 | 42.16430 | 0.15608 | 36934 ft | 422 kts | 184° |
| 2026-05-04 19:58 | 42.10554 | 0.15660 | 36934 ft | 423 kts | 184° |
| 2026-05-04 19:58 | 42.04674 | 0.15594 | 36935 ft | 420 kts | 189° |
| 2026-05-04 19:59 | 41.98910 | 0.14754 | 36938 ft | 419 kts | 191° |
| 2026-05-04 19:59 | 41.93080 | 0.13794 | 36936 ft | 419 kts | 191° |
| 2026-05-04 20:00 | 41.87318 | 0.12887 | 36948 ft | 420 kts | 191° |
| 2026-05-04 20:00 | 41.81515 | 0.12007 | 36949 ft | 420 kts | 191° |
| 2026-05-04 20:01 | 41.75711 | 0.11140 | 36937 ft | 420 kts | 191° |
| 2026-05-04 20:01 | 41.69906 | 0.10275 | 36948 ft | 419 kts | 191° |
| 2026-05-04 20:02 | 41.64113 | 0.09413 | 36950 ft | 419 kts | 191° |
| 2026-05-04 20:02 | 41.58321 | 0.08552 | 36947 ft | 419 kts | 191° |
| 2026-05-04 20:03 | 41.52529 | 0.07693 | 36949 ft | 419 kts | 191° |
| 2026-05-04 20:03 | 41.46736 | 0.06835 | 36951 ft | 419 kts | 191° |
| 2026-05-04 20:04 | 41.40947 | 0.05979 | 36947 ft | 418 kts | 191° |
| 2026-05-04 20:04 | 41.35163 | 0.05125 | 36957 ft | 418 kts | 191° |
| 2026-05-04 20:05 | 41.29381 | 0.04274 | 36943 ft | 418 kts | 192° |
| 2026-05-04 20:05 | 41.23593 | 0.03423 | 36960 ft | 418 kts | 192° |
| 2026-05-04 20:06 | 41.17816 | 0.02574 | 36962 ft | 418 kts | 192° |
| 2026-05-04 20:06 | 41.12026 | 0.01726 | 36950 ft | 418 kts | 192° |
| 2026-05-04 20:07 | 41.06246 | 0.00882 | 36966 ft | 418 kts | 192° |
| 2026-05-04 20:07 | 41.00455 | 0.00041 | 36971 ft | 419 kts | 192° |
| 2026-05-04 20:08 | 40.94660 | -0.00800 | 36976 ft | 419 kts | 192° |
| 2026-05-04 20:08 | 40.88862 | -0.01639 | 36958 ft | 418 kts | 192° |
| 2026-05-04 20:09 | 40.83076 | -0.02475 | 36974 ft | 418 kts | 192° |
| 2026-05-04 20:09 | 40.77286 | -0.03311 | 36970 ft | 418 kts | 192° |
| 2026-05-04 20:10 | 40.71498 | -0.04145 | 36986 ft | 419 kts | 192° |
| 2026-05-04 20:10 | 40.65711 | -0.04978 | 36969 ft | 419 kts | 192° |
| 2026-05-04 20:11 | 40.59911 | -0.05810 | 36984 ft | 419 kts | 192° |
| 2026-05-04 20:11 | 40.54212 | -0.06923 | 36961 ft | 412 kts | 201° |
| 2026-05-04 20:12 | 40.48769 | -0.09118 | 36988 ft | 406 kts | 202° |
| 2026-05-04 20:12 | 40.46097 | -0.10200 | 36943 ft | 395 kts | 202° |
| 2026-05-04 20:12 | 40.43514 | -0.11231 | 36967 ft | 382 kts | 202° |
| 2026-05-04 20:13 | 40.38518 | -0.13210 | 36617 ft | 370 kts | 202° |
| 2026-05-04 20:13 | 40.36036 | -0.14196 | 35810 ft | 379 kts | 202° |
| 2026-05-04 20:13 | 40.33486 | -0.15206 | 35114 ft | 385 kts | 202° |
| 2026-05-04 20:13 | 40.30925 | -0.16212 | 34719 ft | 383 kts | 202° |
| 2026-05-04 20:14 | 40.28390 | -0.17204 | 34452 ft | 377 kts | 202° |
| 2026-05-04 20:14 | 40.25894 | -0.18180 | 34169 ft | 372 kts | 203° |
| 2026-05-04 20:14 | 40.23422 | -0.19153 | 33709 ft | 370 kts | 203° |
| 2026-05-04 20:14 | 40.20961 | -0.20127 | 33241 ft | 369 kts | 203° |
| 2026-05-04 20:15 | 40.18516 | -0.21096 | 32810 ft | 367 kts | 203° |
| 2026-05-04 20:15 | 40.16081 | -0.22059 | 32442 ft | 364 kts | 203° |
| 2026-05-04 20:15 | 40.13661 | -0.23015 | 32026 ft | 362 kts | 203° |
| 2026-05-04 20:15 | 40.11253 | -0.23967 | 31549 ft | 362 kts | 203° |
| 2026-05-04 20:16 | 40.08845 | -0.24917 | 31165 ft | 360 kts | 203° |
| 2026-05-04 20:16 | 40.06461 | -0.25856 | 30782 ft | 358 kts | 203° |
| 2026-05-04 20:16 | 40.04080 | -0.26794 | 30421 ft | 356 kts | 203° |
| 2026-05-04 20:16 | 40.01716 | -0.27723 | 30050 ft | 354 kts | 203° |
| 2026-05-04 20:17 | 39.99369 | -0.28644 | 29638 ft | 352 kts | 203° |
| 2026-05-04 20:17 | 39.97016 | -0.29555 | 29131 ft | 351 kts | 203° |
| 2026-05-04 20:17 | 39.94685 | -0.30451 | 28748 ft | 348 kts | 203° |
| 2026-05-04 20:17 | 39.92377 | -0.31337 | 28402 ft | 343 kts | 203° |
| 2026-05-04 20:18 | 39.90097 | -0.32212 | 28048 ft | 341 kts | 203° |
| 2026-05-04 20:18 | 39.87831 | -0.33087 | 27672 ft | 339 kts | 203° |
| 2026-05-04 20:18 | 39.85581 | -0.33962 | 27290 ft | 336 kts | 203° |
| 2026-05-04 20:18 | 39.83353 | -0.34834 | 26925 ft | 333 kts | 203° |
| 2026-05-04 20:19 | 39.81135 | -0.35698 | 26586 ft | 331 kts | 203° |
| 2026-05-04 20:19 | 39.78971 | -0.36539 | 26249 ft | 327 kts | 203° |
| 2026-05-04 20:19 | 39.76801 | -0.37382 | 25928 ft | 325 kts | 203° |
| 2026-05-04 20:19 | 39.74645 | -0.38219 | 25601 ft | 322 kts | 203° |
| 2026-05-04 20:20 | 39.72501 | -0.39052 | 25270 ft | 320 kts | 203° |
| 2026-05-04 20:20 | 39.70377 | -0.39875 | 24955 ft | 317 kts | 202° |
| 2026-05-04 20:20 | 39.68274 | -0.40690 | 24646 ft | 315 kts | 203° |
| 2026-05-04 20:20 | 39.66171 | -0.41506 | 24320 ft | 314 kts | 203° |
| 2026-05-04 20:21 | 39.64080 | -0.42317 | 24003 ft | 313 kts | 202° |
| 2026-05-04 20:21 | 39.62000 | -0.43123 | 23684 ft | 312 kts | 202° |
| 2026-05-04 20:21 | 39.57863 | -0.44724 | 22958 ft | 308 kts | 202° |
| 2026-05-04 20:22 | 39.55823 | -0.45511 | 22661 ft | 304 kts | 203° |
| 2026-05-04 20:22 | 39.53803 | -0.46291 | 22340 ft | 302 kts | 203° |
| 2026-05-04 20:22 | 39.51798 | -0.47064 | 22039 ft | 299 kts | 203° |
| 2026-05-04 20:22 | 39.49816 | -0.47829 | 21721 ft | 297 kts | 203° |
| 2026-05-04 20:23 | 39.47841 | -0.48582 | 21408 ft | 295 kts | 202° |
| 2026-05-04 20:23 | 39.45871 | -0.49297 | 21076 ft | 294 kts | 202° |
| 2026-05-04 20:23 | 39.43905 | -0.49996 | 20766 ft | 292 kts | 201° |
| 2026-05-04 20:23 | 39.41946 | -0.50689 | 20462 ft | 291 kts | 201° |
| 2026-05-04 20:24 | 39.40000 | -0.51379 | 20164 ft | 289 kts | 201° |
| 2026-05-04 20:24 | 39.38067 | -0.52065 | 19864 ft | 288 kts | 201° |
| 2026-05-04 20:24 | 39.36144 | -0.52747 | 19561 ft | 286 kts | 201° |
| 2026-05-04 20:24 | 39.34234 | -0.53426 | 19258 ft | 284 kts | 202° |
| 2026-05-04 20:25 | 39.32333 | -0.54100 | 18982 ft | 282 kts | 202° |
| 2026-05-04 20:25 | 39.30448 | -0.54770 | 18717 ft | 280 kts | 202° |
| 2026-05-04 20:25 | 39.28584 | -0.55433 | 18436 ft | 280 kts | 202° |
| 2026-05-04 20:25 | 39.26714 | -0.56098 | 18137 ft | 279 kts | 202° |
| 2026-05-04 20:26 | 39.24847 | -0.56761 | 17812 ft | 277 kts | 202° |
| 2026-05-04 20:26 | 39.22995 | -0.57419 | 17512 ft | 275 kts | 202° |
| 2026-05-04 20:26 | 39.21152 | -0.58073 | 17220 ft | 274 kts | 201° |
| 2026-05-04 20:26 | 39.19314 | -0.58725 | 16943 ft | 275 kts | 201° |
| 2026-05-04 20:27 | 39.17463 | -0.59383 | 16668 ft | 278 kts | 201° |
| 2026-05-04 20:27 | 39.15570 | -0.60058 | 16379 ft | 287 kts | 201° |
| 2026-05-04 20:27 | 39.13643 | -0.60744 | 16077 ft | 294 kts | 201° |
| 2026-05-04 20:27 | 39.11672 | -0.61441 | 15760 ft | 293 kts | 200° |
| 2026-05-04 20:28 | 39.09713 | -0.62132 | 15459 ft | 291 kts | 200° |
| 2026-05-04 20:28 | 39.07761 | -0.62818 | 15138 ft | 290 kts | 200° |
| 2026-05-04 20:28 | 39.05828 | -0.63497 | 14875 ft | 287 kts | 200° |
| 2026-05-04 20:28 | 39.03904 | -0.64177 | 14569 ft | 287 kts | 200° |
| 2026-05-04 20:29 | 39.01980 | -0.64857 | 14279 ft | 286 kts | 199° |
| 2026-05-04 20:29 | 39.00066 | -0.65532 | 13985 ft | 285 kts | 199° |
| 2026-05-04 20:29 | 38.98156 | -0.66206 | 13680 ft | 285 kts | 199° |
| 2026-05-04 20:29 | 38.96248 | -0.66878 | 13344 ft | 284 kts | 199° |
| 2026-05-04 20:30 | 38.94348 | -0.67546 | 13040 ft | 282 kts | 199° |
| 2026-05-04 20:30 | 38.92453 | -0.68212 | 12738 ft | 281 kts | 199° |
| 2026-05-04 20:30 | 38.90574 | -0.68873 | 12449 ft | 280 kts | 199° |
| 2026-05-04 20:30 | 38.88702 | -0.69531 | 12140 ft | 278 kts | 199° |
| 2026-05-04 20:31 | 38.86841 | -0.70184 | 11857 ft | 276 kts | 199° |
| 2026-05-04 20:31 | 38.84991 | -0.70835 | 11576 ft | 275 kts | 199° |
| 2026-05-04 20:31 | 38.83142 | -0.71484 | 11279 ft | 275 kts | 199° |
| 2026-05-04 20:31 | 38.81296 | -0.72131 | 10988 ft | 275 kts | 199° |
| 2026-05-04 20:32 | 38.79455 | -0.72777 | 10694 ft | 274 kts | 199° |
| 2026-05-04 20:32 | 38.77620 | -0.73420 | 10399 ft | 273 kts | 199° |
| 2026-05-04 20:32 | 38.75796 | -0.74057 | 10141 ft | 270 kts | 199° |
| 2026-05-04 20:32 | 38.74016 | -0.74679 | 10020 ft | 261 kts | 199° |
| 2026-05-04 20:33 | 38.72276 | -0.75287 | 9728 ft | 258 kts | 199° |
| 2026-05-04 20:33 | 38.70561 | -0.75886 | 9439 ft | 254 kts | 199° |
| 2026-05-04 20:33 | 38.68873 | -0.76477 | 9165 ft | 250 kts | 198° |
| 2026-05-04 20:33 | 38.67224 | -0.77053 | 8893 ft | 247 kts | 198° |
| 2026-05-04 20:34 | 38.65576 | -0.77629 | 8632 ft | 245 kts | 199° |
| 2026-05-04 20:34 | 38.63932 | -0.78204 | 8378 ft | 244 kts | 199° |
| 2026-05-04 20:34 | 38.62308 | -0.78770 | 8131 ft | 239 kts | 199° |
| 2026-05-04 20:34 | 38.60710 | -0.79327 | 7901 ft | 238 kts | 199° |
| 2026-05-04 20:35 | 38.59126 | -0.79880 | 7723 ft | 234 kts | 200° |
| 2026-05-04 20:35 | 38.57577 | -0.80419 | 7608 ft | 226 kts | 199° |
| 2026-05-04 20:35 | 38.56082 | -0.80938 | 7492 ft | 221 kts | 199° |
| 2026-05-04 20:35 | 38.54608 | -0.81450 | 7397 ft | 219 kts | 199° |
| 2026-05-04 20:36 | 38.53101 | -0.81907 | 7193 ft | 226 kts | 193° |
| 2026-05-04 20:36 | 38.51533 | -0.82191 | 6978 ft | 226 kts | 191° |
| 2026-05-04 20:36 | 38.49997 | -0.82439 | 6733 ft | 219 kts | 191° |
| 2026-05-04 20:36 | 38.48512 | -0.82665 | 6508 ft | 211 kts | 191° |
| 2026-05-04 20:37 | 38.47082 | -0.82878 | 6304 ft | 203 kts | 191° |
| 2026-05-04 20:37 | 38.45690 | -0.83081 | 6166 ft | 201 kts | 191° |
| 2026-05-04 20:37 | 38.44296 | -0.83285 | 6005 ft | 203 kts | 191° |
| 2026-05-04 20:37 | 38.42891 | -0.83493 | 5808 ft | 204 kts | 191° |
| 2026-05-04 20:38 | 38.41488 | -0.83701 | 5597 ft | 201 kts | 191° |
| 2026-05-04 20:38 | 38.40106 | -0.83900 | 5392 ft | 198 kts | 191° |
| 2026-05-04 20:38 | 38.38751 | -0.84091 | 5183 ft | 195 kts | 191° |
| 2026-05-04 20:38 | 38.37409 | -0.84281 | 4980 ft | 193 kts | 191° |
| 2026-05-04 20:39 | 38.36073 | -0.84356 | 4773 ft | 196 kts | 172° |
| 2026-05-04 20:39 | 38.34865 | -0.83550 | 4631 ft | 198 kts | 143° |
| 2026-05-04 20:39 | 38.33814 | -0.82384 | 4532 ft | 209 kts | 141° |
| 2026-05-04 20:39 | 38.32672 | -0.81102 | 3946 ft | 224 kts | 141° |
| 2026-05-04 20:40 | 38.31597 | -0.79687 | 3572 ft | 222 kts | 122° |
| 2026-05-04 20:40 | 38.31245 | -0.77822 | 3300 ft | 213 kts | 94° |
| 2026-05-04 20:40 | 38.31062 | -0.76004 | 3004 ft | 202 kts | 101° |
| 2026-05-04 20:40 | 38.30804 | -0.74306 | 2745 ft | 189 kts | 101° |
| 2026-05-04 20:41 | 38.30571 | -0.72703 | 2490 ft | 178 kts | 100° |
| 2026-05-04 20:41 | 38.30359 | -0.71188 | 2316 ft | 171 kts | 100° |
| 2026-05-04 20:41 | 38.30149 | -0.69686 | 2063 ft | 172 kts | 99° |
| 2026-05-04 20:41 | 38.29941 | -0.68203 | 1829 ft | 169 kts | 99° |
| 2026-05-04 20:42 | 38.29737 | -0.66744 | 1605 ft | 166 kts | 98° |
| 2026-05-04 20:42 | 38.29537 | -0.65311 | 1383 ft | 162 kts | 98° |
| 2026-05-04 20:42 | 38.29344 | -0.63930 | 1180 ft | 158 kts | 98° |
| 2026-05-04 20:42 | 38.29155 | -0.62559 | 981 ft | 156 kts | 98° |
| 2026-05-04 20:43 | 38.28971 | -0.61199 | 775 ft | 156 kts | 98° |
| 2026-05-04 20:43 | 38.28782 | -0.59847 | 584 ft | 154 kts | 98° |
| 2026-05-04 20:43 | 38.28591 | -0.58494 | 346 ft | 156 kts | 98° |
| 2026-05-04 20:43 | 38.28468 | -0.57595 | 216 ft | 155 kts | 98° |
| 2026-05-04 20:44 | 38.28284 | -0.56290 | 114 ft | 135 kts | 101° |
| 2026-05-04 20:44 | 38.28147 | -0.55304 | 87 ft | 91 kts | 100° |
| 2026-05-04 20:44 | 38.28070 | -0.54760 | 70 ft | 30 kts | 100° |
| 2026-05-04 20:44 | 38.28037 | -0.54519 | 58 ft | 10 kts | 94° |
| 2026-05-04 20:45 | 38.28063 | -0.54472 | 62 ft | 10 kts | 25° |
| 2026-05-04 20:45 | 38.28132 | -0.54452 | 60 ft | 10 kts | 10° |
| 2026-05-04 20:45 | 38.28187 | -0.54451 | 59 ft | 6 kts | 339° |
| 2026-05-04 20:45 | 38.28210 | -0.54493 | 58 ft | 6 kts | 285° |
| 2026-05-04 20:46 | 38.28218 | -0.54545 | 62 ft | 6 kts | 281° |
| 2026-05-04 20:46 | 38.28225 | -0.54595 | 57 ft | 6 kts | 279° |
| 2026-05-04 20:46 | 38.28232 | -0.54645 | 65 ft | 6 kts | 280° |
| 2026-05-04 20:46 | 38.28239 | -0.54694 | 67 ft | 6 kts | 279° |
| 2026-05-04 20:47 | 38.28246 | -0.54746 | 65 ft | 6 kts | 280° |
| 2026-05-04 20:47 | 38.28253 | -0.54799 | 70 ft | 6 kts | 280° |
| 2026-05-04 20:47 | 38.28262 | -0.54863 | 73 ft | 8 kts | 279° |
| 2026-05-04 20:47 | 38.28274 | -0.54946 | 72 ft | 11 kts | 281° |
| 2026-05-04 20:48 | 38.28289 | -0.55047 | 81 ft | 12 kts | 280° |
| 2026-05-04 20:48 | 38.28303 | -0.55148 | 83 ft | 11 kts | 281° |
| 2026-05-04 20:48 | 38.28353 | -0.55209 | 87 ft | 11 kts | 9° |
| 2026-05-04 20:48 | 38.28389 | -0.55163 | 88 ft | 4 kts | 43° |
| 2026-05-04 20:49 | 38.28418 | -0.55156 | 87 ft | 5 kts | 343° |
| 2026-05-04 20:49 | 38.28440 | -0.55197 | 90 ft | 7 kts | 285° |
| 2026-05-04 20:49 | 38.28450 | -0.55262 | 87 ft | 8 kts | 280° |
| 2026-05-04 20:49 | 38.28459 | -0.55331 | 92 ft | 8 kts | 280° |
| 2026-05-04 20:50 | 38.28469 | -0.55398 | 91 ft | 8 kts | 280° |
| 2026-05-04 20:50 | 38.28478 | -0.55464 | 92 ft | 7 kts | 279° |
| 2026-05-04 20:50 | 38.28487 | -0.55530 | 95 ft | 8 kts | 281° |
| 2026-05-04 20:50 | 38.28501 | -0.55603 | 96 ft | 9 kts | 282° |
| 2026-05-04 20:51 | 38.28508 | -0.55648 | 95 ft | 1 kts | 280° |
| 2026-05-04 20:51 | 38.28513 | -0.55659 | 96 ft | 2 kts | 312° |
| 2026-05-04 20:51 | 38.28527 | -0.55660 | 95 ft | 3 kts | 4° |
| 2026-05-04 20:51 | 38.28559 | -0.55655 | 97 ft | 5 kts | 8° |
| 2026-05-04 20:52 | 38.28576 | -0.55651 | 95 ft | 0 kts | 10° |